Time;durP1;ratioP1;P1;durP2;ratioP2;P2;SDS_P1;SDS_P2;PMS_P1;PMS_P2;Temp;Humidity;BMP_temperature;BMP_pressure;BME280_temperature;BME280_humidity;BME280_pressure;Samples;Min_cycle;Max_cycle;Signal;HPM_P1;HPM_P2
2024/04/13 00:01:43;;;;;;;11.50;3.42;;;;;;;8.22;60.45;102414.19;5360180;26;20043;-71
2024/04/13 00:04:11;;;;;;;11.60;4.38;;;;;;;8.19;60.79;102409.00;5361452;26;20842;-71
2024/04/13 00:06:37;;;;;;;9.45;3.08;;;;;;;8.01;61.29;102397.81;5342281;26;20434;-68
2024/04/13 00:09:04;;;;;;;12.90;5.18;;;;;;;8.29;60.39;102401.13;5361298;26;20008;-68
2024/04/13 00:11:32;;;;;;;9.40;3.75;;;;;;;8.31;60.32;102403.72;5347785;26;20007;-67
2024/04/13 00:14:00;;;;;;;9.80;3.03;;;;;;;8.49;59.78;102398.38;5354794;26;20004;-67
2024/04/13 00:16:25;;;;;;;9.73;4.50;;;;;;;8.56;59.59;102389.66;5350229;26;20489;-69
2024/04/13 00:18:53;;;;;;;8.88;3.25;;;;;;;8.50;59.57;102394.91;5381915;26;20003;-68
2024/04/13 00:21:20;;;;;;;10.43;3.85;;;;;;;8.59;59.58;102387.91;5386219;26;20067;-68
2024/04/13 00:23:49;;;;;;;9.70;3.80;;;;;;;8.47;60.46;102394.03;5362044;26;20019;-67
2024/04/13 00:26:14;;;;;;;7.80;3.20;;;;;;;8.61;59.77;102386.16;5354928;26;20003;-69
2024/04/13 00:28:40;;;;;;;11.02;3.22;;;;;;;8.68;59.63;102382.63;5347783;26;20015;-68
2024/04/13 00:31:05;;;;;;;9.50;4.50;;;;;;;8.32;60.75;102385.47;5361110;26;20034;-67
2024/04/13 00:33:33;;;;;;;11.90;3.90;;;;;;;8.49;60.24;102377.53;5352143;26;20607;-65
2024/04/13 00:36:00;;;;;;;6.95;3.38;;;;;;;8.63;60.22;102376.56;5355085;26;20012;-66
2024/04/13 00:38:28;;;;;;;6.45;2.95;;;;;;;8.74;59.65;102380.00;5352494;26;19999;-66
2024/04/13 00:40:55;;;;;;;8.38;3.75;;;;;;;8.67;59.95;102375.66;5326153;26;20105;-70
2024/04/13 00:43:21;;;;;;;12.45;4.13;;;;;;;8.72;59.42;102379.16;5358405;26;20008;-70
2024/04/13 00:45:47;;;;;;;9.88;3.50;;;;;;;8.78;59.47;102368.66;5350727;26;20011;-71
2024/04/13 00:48:19;;;;;;;9.55;3.75;;;;;;;8.81;59.24;102367.75;5343405;26;20004;-70
2024/04/13 00:50:54;;;;;;;7.78;3.10;;;;;;;8.83;59.17;102371.22;5344331;26;20036;-71
2024/04/13 00:53:21;;;;;;;9.57;4.18;;;;;;;8.69;59.85;102372.16;5360566;26;20003;-72
2024/04/13 00:55:49;;;;;;;10.23;3.13;;;;;;;8.79;59.20;102365.19;5343163;26;20521;-72
2024/04/13 00:58:16;;;;;;;13.45;3.47;;;;;;;8.86;58.72;102350.34;5324717;26;20016;-72
2024/04/13 01:00:44;;;;;;;7.28;3.15;;;;;;;8.71;59.32;102352.19;5343402;26;20004;-72
2024/04/13 01:03:11;;;;;;;8.95;3.15;;;;;;;8.68;59.54;102348.72;5361011;26;20000;-71
2024/04/13 01:05:38;;;;;;;8.00;2.97;;;;;;;8.78;59.17;102347.78;5346862;26;20015;-71
2024/04/13 01:08:04;;;;;;;8.52;3.15;;;;;;;8.75;59.16;102353.03;5328596;26;21152;-69
2024/04/13 01:10:30;;;;;;;9.63;4.13;;;;;;;8.51;60.05;102346.25;5351160;26;20011;-72
2024/04/13 01:12:58;;;;;;;8.68;2.88;;;;;;;8.49;59.97;102348.00;5302413;26;20089;-71
2024/04/13 01:15:27;;;;;;;12.35;3.63;;;;;;;8.57;59.74;102347.06;5350664;26;20007;-71
2024/04/13 01:17:53;;;;;;;8.27;3.05;;;;;;;8.70;59.11;102352.19;5351985;26;20003;-71
2024/04/13 01:20:19;;;;;;;9.75;3.10;;;;;;;8.59;59.44;102346.19;5361792;26;20022;-73
2024/04/13 01:22:45;;;;;;;9.43;2.65;;;;;;;8.65;59.62;102340.91;5317420;26;20011;-71
2024/04/13 01:25:20;;;;;;;8.15;3.50;;;;;;;8.40;60.16;102343.72;5359081;26;20067;-72
2024/04/13 01:27:46;;;;;;;9.93;4.50;;;;;;;8.42;59.78;102346.31;5305224;26;20097;-71
2024/04/13 01:30:12;;;;;;;5.97;2.25;;;;;;;8.48;60.12;102344.53;5358967;26;20019;-72
2024/04/13 01:32:39;;;;;;;5.80;2.63;;;;;;;8.48;59.95;102344.53;5348269;26;20757;-71
2024/04/13 01:35:09;;;;;;;8.52;3.35;;;;;;;8.38;60.49;102340.25;5348970;26;20011;-71
2024/04/13 01:37:37;;;;;;;10.02;3.08;;;;;;;8.45;60.08;102338.47;5336339;26;20011;-70
2024/04/13 01:40:09;;;;;;;5.18;2.45;;;;;;;8.38;60.99;102337.66;5354052;26;19999;-71
2024/04/13 01:42:36;;;;;;;7.45;2.60;;;;;;;8.60;60.08;102332.28;5323678;26;20017;-73
2024/04/13 01:45:03;;;;;;;8.70;3.28;;;;;;;8.62;60.05;102335.75;5357387;26;20010;-70
2024/04/13 01:47:29;;;;;;;9.60;2.38;;;;;;;8.75;59.39;102337.41;5350951;26;20831;-72
2024/04/13 01:49:54;;;;;;;8.50;3.08;;;;;;;8.65;59.68;102346.13;5369551;26;20095;-70
2024/04/13 01:52:22;;;;;;;9.63;3.13;;;;;;;8.73;59.60;102337.41;5359264;26;20466;-69
2024/04/13 01:54:48;;;;;;;4.82;2.83;;;;;;;8.67;59.71;102344.38;5344898;26;20007;-69
2024/04/13 01:57:16;;;;;;;5.18;2.55;;;;;;;8.24;61.49;102339.50;5361094;26;20017;-70
2024/04/13 01:59:43;;;;;;;4.50;2.35;;;;;;;8.45;60.87;102339.34;5347148;26;20556;-69
2024/04/13 02:02:12;;;;;;;5.85;3.03;;;;;;;8.69;59.97;102329.59;5367832;26;20078;-70
2024/04/13 02:04:40;;;;;;;5.75;2.55;;;;;;;8.70;59.84;102333.94;5344184;26;20012;-70
2024/04/13 02:07:06;;;;;;;5.32;1.90;;;;;;;8.61;60.59;102326.22;5351302;26;20304;-72
2024/04/13 02:09:33;;;;;;;5.57;2.25;;;;;;;8.66;60.16;102330.50;5350510;26;20007;-71
2024/04/13 02:11:59;;;;;;;6.20;2.30;;;;;;;8.68;60.08;102325.28;5350480;26;20011;-71
2024/04/13 02:14:24;;;;;;;6.35;2.22;;;;;;;8.91;59.38;102325.06;5336975;26;20019;-71
2024/04/13 02:16:50;;;;;;;8.02;2.08;;;;;;;8.42;60.80;102321.13;5340350;26;20031;-71
2024/04/13 02:19:16;;;;;;;8.07;2.75;;;;;;;8.78;59.40;102316.50;5355551;26;20019;-71
2024/04/13 02:21:41;;;;;;;4.88;2.25;;;;;;;8.76;59.94;102315.66;5354266;26;20537;-73
2024/04/13 02:24:07;;;;;;;7.20;3.17;;;;;;;8.68;59.86;102320.06;5354761;26;20011;-71
2024/04/13 02:26:32;;;;;;;6.00;1.58;;;;;;;8.67;60.23;102315.72;5318903;26;20088;-70
2024/04/13 02:28:59;;;;;;;5.88;1.92;;;;;;;8.83;59.39;102326.88;5351294;26;20034;-70
2024/04/13 02:31:25;;;;;;;5.13;1.80;;;;;;;8.83;59.39;102322.56;5358761;26;20017;-68
2024/04/13 02:33:50;;;;;;;4.95;1.95;;;;;;;8.85;59.07;102319.91;5342932;26;20007;-68
2024/04/13 02:36:16;;;;;;;11.30;2.65;;;;;;;8.55;60.47;102333.19;5353114;26;20021;-69
2024/04/13 02:38:46;;;;;;;6.35;2.15;;;;;;;8.61;60.62;102328.81;5322160;26;20041;-69
2024/04/13 02:41:15;;;;;;;2.20;1.42;;;;;;;8.79;59.66;102333.88;5365014;26;20018;-69
2024/04/13 02:43:43;;;;;;;4.07;1.60;;;;;;;8.71;60.06;102335.69;5375433;26;21234;-69
2024/04/13 02:46:13;;;;;;;6.53;1.88;;;;;;;8.54;60.72;102336.69;5361596;26;20826;-67
2024/04/13 02:48:43;;;;;;;10.55;2.08;;;;;;;8.68;60.45;102343.53;5374828;26;20002;-68
2024/04/13 02:51:09;;;;;;;2.90;1.50;;;;;;;8.57;61.03;102328.81;5360144;26;20018;-67
2024/04/13 02:53:35;;;;;;;6.20;1.38;;;;;;;8.62;60.64;102330.53;5375844;26;20038;-67
2024/04/13 02:56:05;;;;;;;3.63;1.25;;;;;;;8.96;59.49;102318.97;5383094;26;20009;-71
2024/04/13 02:58:32;;;;;;;3.88;1.52;;;;;;;8.66;60.82;102327.03;5330204;26;20038;-71
2024/04/13 03:00:59;;;;;;;4.68;1.10;;;;;;;8.79;60.34;102323.47;5353307;26;20022;-70
2024/04/13 03:03:28;;;;;;;5.80;1.30;;;;;;;8.97;59.45;102310.22;5369036;26;20005;-72
2024/04/13 03:05:58;;;;;;;6.50;0.93;;;;;;;8.81;60.25;102321.72;5374836;26;20461;-71
2024/04/13 03:08:24;;;;;;;9.70;1.25;;;;;;;8.71;60.75;102325.25;5388439;26;20003;-72
2024/04/13 03:10:56;;;;;;;7.72;1.40;;;;;;;8.80;60.25;102319.09;5378271;26;23917;-72
2024/04/13 03:13:22;;;;;;;5.38;1.40;;;;;;;8.62;60.54;102322.72;5380950;26;20001;-72
2024/04/13 03:16:03;;;;;;;4.32;1.05;;;;;;;8.77;59.95;102325.22;5362040;26;20074;-72
2024/04/13 03:18:32;;;;;;;6.93;1.23;;;;;;;8.62;60.99;102322.72;5390374;26;20075;-71
2024/04/13 03:21:00;;;;;;;7.70;1.08;;;;;;;8.83;59.78;102329.50;5369899;26;20006;-71
2024/04/13 03:23:28;;;;;;;3.50;0.77;;;;;;;8.80;60.67;102325.19;5392662;26;20055;-71
2024/04/13 03:25:54;;;;;;;5.13;1.38;;;;;;;8.56;60.63;102321.91;5370902;26;20079;-70
2024/04/13 03:28:25;;;;;;;2.47;1.10;;;;;;;8.32;61.85;102322.09;5375351;26;20003;-72
2024/04/13 03:30:55;;;;;;;4.10;1.25;;;;;;;8.78;60.35;102326.94;5381098;26;20087;-71
2024/04/13 03:33:22;;;;;;;6.70;1.40;;;;;;;8.58;60.77;102324.47;5394015;26;20003;-68
2024/04/13 03:35:47;;;;;;;6.78;1.50;;;;;;;8.83;59.71;102309.53;5359847;26;20077;-69
2024/04/13 03:38:13;;;;;;;1.75;0.50;;;;;;;8.75;60.04;102311.31;5391880;26;20000;-68
2024/04/13 03:40:44;;;;;;;5.55;1.10;;;;;;;8.89;59.56;102308.59;5351548;26;20104;-68
2024/04/13 03:43:14;;;;;;;5.45;1.10;;;;;;;8.62;60.47;102312.28;5386008;26;20020;-66
2024/04/13 03:45:42;;;;;;;4.43;0.95;;;;;;;8.88;59.64;102312.94;5383969;26;20004;-66
2024/04/13 03:48:07;;;;;;;4.03;1.27;;;;;;;8.62;60.34;102317.50;5385466;26;20026;-66
2024/04/13 03:50:42;;;;;;;7.95;1.02;;;;;;;8.75;60.15;102300.91;5386785;26;20084;-66
2024/04/13 03:53:10;;;;;;;4.55;0.90;;;;;;;8.70;60.22;102293.09;5385825;26;20584;-67
2024/04/13 03:55:36;;;;;;;4.38;0.70;;;;;;;8.49;60.75;102307.16;5379030;26;20046;-67
2024/04/13 03:58:01;;;;;;;5.97;1.00;;;;;;;8.39;60.91;102308.13;5383362;26;20377;-67
2024/04/13 04:00:27;;;;;;;7.13;1.17;;;;;;;8.67;60.42;102306.16;5394499;26;20520;-67
2024/04/13 04:02:53;;;;;;;5.28;1.23;;;;;;;8.48;60.58;102308.06;5388798;26;21199;-68
2024/04/13 04:05:18;;;;;;;5.82;1.02;;;;;;;8.69;60.20;102307.00;5380697;26;21242;-67
2024/04/13 04:07:52;;;;;;;7.60;0.90;;;;;;;8.69;60.04;102304.38;5355512;26;20804;-67
2024/04/13 04:10:17;;;;;;;5.93;0.80;;;;;;;8.52;60.56;102322.78;5356414;26;20003;-70
2024/04/13 04:12:43;;;;;;;5.80;1.42;;;;;;;8.50;60.95;102316.72;5383674;26;20014;-69
2024/04/13 04:15:11;;;;;;;6.35;0.77;;;;;;;8.68;60.14;102314.84;5388350;26;20009;-69
2024/04/13 04:17:37;;;;;;;8.40;1.65;;;;;;;8.78;59.55;102311.28;5383260;26;20008;-69
2024/04/13 04:20:03;;;;;;;7.50;1.70;;;;;;;8.26;61.82;102311.72;5357627;26;20007;-68
2024/04/13 04:22:28;;;;;;;3.38;0.82;;;;;;;8.42;60.88;102312.44;5392872;26;20838;-68
2024/04/13 04:24:54;;;;;;;7.82;2.45;;;;;;;8.18;61.38;102326.50;5382526;26;20018;-69
2024/04/13 04:27:20;;;;;;;8.18;1.13;;;;;;;8.60;60.66;102324.47;5380874;26;20795;-69
2024/04/13 04:29:46;;;;;;;8.57;0.95;;;;;;;8.50;60.83;102316.72;5375459;26;20022;-69
2024/04/13 04:32:12;;;;;;;5.47;0.98;;;;;;;8.57;60.69;102310.56;5385847;26;20014;-70
2024/04/13 04:34:38;;;;;;;6.43;1.38;;;;;;;8.69;59.93;102312.19;5388996;26;20073;-69
2024/04/13 04:37:03;;;;;;;7.57;1.60;;;;;;;8.52;60.67;102312.38;5380611;26;20344;-69
2024/04/13 04:39:29;;;;;;;4.75;0.82;;;;;;;8.24;61.42;102311.72;5377866;26;20003;-69
2024/04/13 04:41:55;;;;;;;6.88;0.75;;;;;;;8.45;60.87;102318.50;5384195;25;20824;-69
2024/04/13 04:44:21;;;;;;;6.22;0.90;;;;;;;8.38;61.34;102311.59;5393608;26;20047;-69
2024/04/13 04:46:47;;;;;;;7.30;1.10;;;;;;;8.24;61.85;102319.53;5392199;26;20007;-70
2024/04/13 04:49:13;;;;;;;9.43;1.35;;;;;;;8.41;61.28;102326.38;5386817;26;20088;-69
2024/04/13 04:51:46;;;;;;;12.73;1.25;;;;;;;8.70;60.44;102323.53;5392074;26;20011;-69
2024/04/13 04:54:13;;;;;;;5.30;1.42;;;;;;;8.77;60.09;102325.22;5413943;26;20002;-69
2024/04/13 04:56:39;;;;;;;8.98;1.38;;;;;;;8.83;59.86;102322.56;5382828;25;20003;-69
2024/04/13 04:59:04;;;;;;;4.55;1.25;;;;;;;8.83;59.76;102330.38;5387640;26;20550;-68
2024/04/13 05:01:30;;;;;;;8.63;0.82;;;;;;;9.03;59.21;102335.41;5392611;26;21035;-67
2024/04/13 05:03:55;;;;;;;6.10;1.27;;;;;;;8.99;58.92;102336.31;5353843;26;20012;-66
2024/04/13 05:06:23;;;;;;;4.13;0.98;;;;;;;8.89;59.49;102329.44;5357354;26;20016;-66
2024/04/13 05:08:51;;;;;;;13.40;1.02;;;;;;;9.13;58.97;102320.50;5381463;26;20003;-66
2024/04/13 05:11:16;;;;;;;7.57;0.90;;;;;;;9.21;58.45;102310.88;5383172;26;20017;-67
2024/04/13 05:13:42;;;;;;;5.88;1.23;;;;;;;9.21;58.75;102309.97;5357287;26;20007;-69
2024/04/13 05:16:10;;;;;;;7.93;1.33;;;;;;;9.27;58.25;102316.00;5358585;26;20003;-68
2024/04/13 05:18:36;;;;;;;8.45;0.73;;;;;;;9.32;58.17;102321.16;5358829;26;20090;-69
2024/04/13 05:21:04;;;;;;;9.98;1.08;;;;;;;9.54;57.41;102317.44;5352376;26;22744;-69
2024/04/13 05:23:30;;;;;;;10.63;1.92;;;;;;;9.21;58.42;102321.31;5358951;26;20850;-69
2024/04/13 05:25:56;;;;;;;9.82;1.58;;;;;;;9.38;58.03;102314.13;5347282;26;20463;-68
2024/04/13 05:28:23;;;;;;;8.90;1.42;;;;;;;9.51;57.30;102321.81;5348790;26;20016;-68
2024/04/13 05:30:57;;;;;;;10.45;1.02;;;;;;;9.40;57.82;102322.78;5346165;26;20016;-67
2024/04/13 05:33:24;;;;;;;4.57;0.90;;;;;;;9.42;57.87;102320.16;5353547;26;20025;-69
2024/04/13 05:35:49;;;;;;;17.80;2.17;;;;;;;9.56;57.39;102322.59;5349436;26;20047;-69
2024/04/13 05:38:17;;;;;;;12.13;1.83;;;;;;;10.04;56.64;102325.47;5353779;26;19996;-73
2024/04/13 05:40:48;;;;;;;2.78;0.93;;;;;;;9.79;56.98;102319.72;5357727;26;20950;-72
2024/04/13 05:43:16;;;;;;;2.55;0.90;;;;;;;9.89;56.29;102320.47;5356435;26;20019;-70
2024/04/13 05:45:49;;;;;;;6.22;1.33;;;;;;;10.07;55.60;102314.97;5350531;26;20008;-71
2024/04/13 05:48:19;;;;;;;6.22;0.90;;;;;;;10.36;55.27;102327.59;5355023;26;20049;-69
2024/04/13 05:50:54;;;;;;;4.75;1.17;;;;;;;10.36;55.01;102321.50;5350548;26;20025;-69
2024/04/13 05:53:20;;;;;;;6.60;0.75;;;;;;;10.49;54.79;102328.25;5366676;26;20469;-69
2024/04/13 05:55:46;;;;;;;4.25;1.33;;;;;;;10.36;54.74;102330.19;5340897;26;20089;-70
2024/04/13 05:58:11;;;;;;;4.93;1.02;;;;;;;10.48;54.61;102329.16;5355143;26;20032;-72
2024/04/13 06:00:37;;;;;;;7.70;0.70;;;;;;;10.93;53.59;102329.28;5349675;26;20014;-73
2024/04/13 06:03:02;;;;;;;8.20;1.17;;;;;;;10.98;53.77;102327.44;5360054;26;21964;-72
2024/04/13 06:05:28;;;;;;;4.03;1.15;;;;;;;11.73;52.15;102332.03;5351792;26;20012;-73
2024/04/13 06:07:54;;;;;;;5.65;0.80;;;;;;;11.93;51.06;102319.38;5354630;26;20091;-74
2024/04/13 06:10:20;;;;;;;2.92;0.80;;;;;;;11.53;51.66;102320.25;5356855;26;20022;-72
2024/04/13 06:12:48;;;;;;;7.32;1.85;;;;;;;11.37;52.93;102329.28;5333665;26;20003;-74
2024/04/13 06:15:17;;;;;;;5.90;1.10;;;;;;;11.62;52.48;102329.66;5366415;26;20003;-71
2024/04/13 06:17:43;;;;;;;6.47;0.88;;;;;;;11.11;53.14;102332.44;5347964;26;20009;-72
2024/04/13 06:20:10;;;;;;;7.68;1.10;;;;;;;11.35;52.26;102342.44;5362855;26;20023;-73
2024/04/13 06:22:36;;;;;;;5.00;0.85;;;;;;;11.27;52.66;102339.09;5359868;26;21380;-72
2024/04/13 06:25:03;;;;;;;7.15;1.08;;;;;;;10.92;54.42;102361.53;5358061;26;20003;-72
2024/04/13 06:27:30;;;;;;;3.97;1.00;;;;;;;10.28;55.40;102366.06;5359320;26;20483;-75
2024/04/13 06:29:56;;;;;;;6.75;1.48;;;;;;;10.54;55.52;102355.19;5321889;26;20004;-70
2024/04/13 06:32:22;;;;;;;4.43;1.15;;;;;;;10.86;55.31;102361.69;5346780;26;20780;-71
2024/04/13 06:34:48;;;;;;;9.63;1.67;;;;;;;11.54;53.30;102352.53;5345470;26;20505;-71
2024/04/13 06:37:14;;;;;;;9.13;1.45;;;;;;;11.88;53.05;102348.31;5352809;26;20007;-71
2024/04/13 06:39:40;;;;;;;8.93;1.95;;;;;;;12.62;50.59;102341.31;5350258;26;20046;-70
2024/04/13 06:42:06;;;;;;;7.70;1.33;;;;;;;12.73;50.11;102337.59;5342441;26;22088;-68
2024/04/13 06:44:34;;;;;;;5.10;1.27;;;;;;;12.90;49.26;102323.16;5349324;26;20000;-71
2024/04/13 06:47:00;;;;;;;7.57;0.90;;;;;;;12.79;49.54;102321.72;5345931;26;20481;-72
2024/04/13 06:49:26;;;;;;;5.25;0.70;;;;;;;12.57;49.82;102316.97;5349966;26;20004;-70
2024/04/13 06:51:51;;;;;;;7.63;1.30;;;;;;;12.70;49.79;102322.81;5349181;26;20066;-69
2024/04/13 06:54:17;;;;;;;4.20;0.95;;;;;;;13.18;49.28;102338.13;5352204;26;20007;-69
2024/04/13 06:56:42;;;;;;;3.72;0.80;;;;;;;13.08;49.12;102328.81;5339641;26;20007;-71
2024/04/13 06:59:10;;;;;;;5.30;1.10;;;;;;;13.37;48.03;102321.88;5345578;26;20019;-71
2024/04/13 07:01:35;;;;;;;8.38;0.98;;;;;;;14.48;47.15;102324.63;5348948;26;20038;-71
2024/04/13 07:04:03;;;;;;;3.50;1.17;;;;;;;14.23;45.86;102317.50;5344062;26;20056;-71
2024/04/13 07:06:34;;;;;;;3.92;1.20;;;;;;;13.29;48.22;102322.09;5378935;26;19999;-72
2024/04/13 07:09:00;;;;;;;5.95;1.23;;;;;;;12.65;49.48;102312.41;5367130;26;21085;-70
2024/04/13 07:11:27;;;;;;;9.68;1.25;;;;;;;12.22;51.12;102313.50;5385033;26;20003;-71
2024/04/13 07:13:52;;;;;;;8.88;1.80;;;;;;;11.97;51.91;102314.94;5376824;26;20087;-70
2024/04/13 07:16:18;;;;;;;7.57;1.80;;;;;;;12.87;50.04;102311.84;5391789;26;20014;-73
2024/04/13 07:18:49;;;;;;;3.08;1.10;;;;;;;12.98;48.49;102309.84;5380008;26;19998;-74
2024/04/13 07:21:17;;;;;;;5.93;1.23;;;;;;;12.81;50.07;102315.53;5389349;26;20058;-73
2024/04/13 07:23:43;;;;;;;9.45;1.42;;;;;;;13.73;48.60;102317.31;5347522;26;20014;-75
2024/04/13 07:26:11;;;;;;;2.50;0.60;;;;;;;14.18;45.83;102311.53;5381140;26;20039;-69
2024/04/13 07:28:39;;;;;;;8.82;1.63;;;;;;;15.43;43.59;102308.06;5356305;26;20007;-69
2024/04/13 07:31:04;;;;;;;7.10;1.52;;;;;;;15.57;42.71;102305.78;5385565;26;21140;-69
2024/04/13 07:33:32;;;;;;;9.55;0.90;;;;;;;16.40;41.78;102304.25;5384319;26;20015;-69
2024/04/13 07:35:58;;;;;;;7.43;1.10;;;;;;;17.03;39.81;102301.56;5376917;26;20368;-70
2024/04/13 07:38:25;;;;;;;6.72;1.20;;;;;;;17.04;40.01;102303.25;5389056;26;20344;-69
2024/04/13 07:40:50;;;;;;;9.38;1.40;;;;;;;17.21;39.19;102298.06;5386053;26;20094;-68
2024/04/13 07:43:16;;;;;;;4.90;1.08;;;;;;;18.09;38.21;102293.09;5389806;26;20823;-69
2024/04/13 07:45:49;;;;;;;6.30;1.13;;;;;;;17.21;38.77;102295.44;5384262;26;20015;-69
2024/04/13 07:48:15;;;;;;;7.85;1.67;;;;;;;17.59;38.36;102298.09;5373191;26;20039;-68
2024/04/13 07:50:42;;;;;;;7.55;1.63;;;;;;;17.17;39.31;102293.84;5381447;26;20030;-69
2024/04/13 07:53:07;;;;;;;7.00;1.08;;;;;;;16.25;40.84;102297.84;5377102;26;20693;-69
2024/04/13 07:55:33;;;;;;;6.10;1.40;;;;;;;15.83;41.80;102296.00;5380406;26;20814;-68
2024/04/13 07:57:58;;;;;;;11.50;1.75;;;;;;;16.61;40.48;102284.84;5368204;26;19999;-69
2024/04/13 08:00:24;;;;;;;6.10;0.90;;;;;;;18.23;38.38;102278.28;5387394;26;20002;-69
2024/04/13 08:02:49;;;;;;;9.93;2.20;;;;;;;18.29;36.82;102278.88;5386535;26;20504;-69
2024/04/13 08:05:15;;;;;;;8.18;1.10;;;;;;;16.81;39.28;102285.81;5380909;26;20010;-68
2024/04/13 08:07:43;;;;;;;10.20;1.02;;;;;;;17.04;39.11;102287.41;5376069;26;20000;-68
2024/04/13 08:10:08;;;;;;;13.73;2.42;;;;;;;18.04;38.50;102295.97;5380970;26;20014;-69
2024/04/13 08:12:34;;;;;;;9.55;1.35;;;;;;;18.09;37.92;102311.59;5381630;26;20018;-68
2024/04/13 08:15:00;;;;;;;10.63;1.77;;;;;;;16.13;41.78;102303.59;5380637;26;20003;-70
2024/04/13 08:17:28;;;;;;;8.23;1.40;;;;;;;15.79;41.95;102299.66;5378715;26;20033;-68
2024/04/13 08:19:54;;;;;;;5.30;0.95;;;;;;;15.56;42.15;102309.31;5382714;26;20017;-69
2024/04/13 08:22:20;;;;;;;12.50;1.88;;;;;;;15.02;43.34;102307.81;5384927;26;19999;-68
2024/04/13 08:24:45;;;;;;;5.40;1.20;;;;;;;14.79;43.64;102318.28;5393285;26;20007;-68
2024/04/13 08:27:11;;;;;;;7.68;1.48;;;;;;;14.90;44.94;102310.88;5379077;26;20065;-68
2024/04/13 08:29:38;;;;;;;9.15;1.25;;;;;;;14.82;44.27;102305.91;5422112;26;20310;-69
2024/04/13 08:32:04;;;;;;;5.93;1.55;;;;;;;14.50;44.93;102320.13;5357731;26;20070;-68
2024/04/13 08:34:33;;;;;;;7.30;1.98;;;;;;;13.45;47.29;102312.88;5338071;26;20517;-68
2024/04/13 08:37:00;;;;;;;8.30;1.20;;;;;;;13.35;47.56;102316.66;5343627;26;20486;-68
2024/04/13 08:39:26;;;;;;;11.93;1.85;;;;;;;14.16;46.64;102321.22;5358348;26;20000;-69
2024/04/13 08:42:03;;;;;;;10.35;1.45;;;;;;;16.41;41.01;102308.59;5358784;26;20725;-68
2024/04/13 08:44:32;;;;;;;6.53;1.08;;;;;;;17.71;38.86;102309.03;5378233;26;20003;-68
2024/04/13 08:47:00;;;;;;;8.30;2.65;;;;;;;17.39;39.32;102299.00;5405809;26;21238;-69
2024/04/13 08:49:27;;;;;;;5.70;1.55;;;;;;;17.13;40.28;102312.56;5395999;26;20017;-69
2024/04/13 08:51:53;;;;;;;3.67;1.30;;;;;;;17.76;39.13;102307.00;5391810;26;19998;-68
2024/04/13 08:54:18;;;;;;;7.15;1.73;;;;;;;17.52;39.01;102304.63;5399318;26;20090;-68
2024/04/13 08:56:47;;;;;;;11.02;1.70;;;;;;;17.43;39.76;102295.31;5399359;25;20037;-68
2024/04/13 08:59:14;;;;;;;13.07;2.40;;;;;;;17.91;38.63;102295.69;5387218;26;20059;-68
2024/04/13 09:01:47;;;;;;;6.40;2.13;;;;;;;16.84;40.69;102301.50;5417809;26;20019;-68
2024/04/13 09:04:13;;;;;;;5.50;1.27;;;;;;;15.35;43.22;102297.00;5378552;26;20075;-68
2024/04/13 09:06:39;;;;;;;8.18;1.42;;;;;;;16.46;42.43;102289.94;5385305;25;20060;-69
2024/04/13 09:09:08;;;;;;;10.52;2.55;;;;;;;15.62;43.81;102291.56;5355222;26;19998;-68
2024/04/13 09:11:37;;;;;;;13.32;2.00;;;;;;;16.06;42.35;102281.03;5381590;26;20994;-69
2024/04/13 09:14:04;;;;;;;8.25;1.52;;;;;;;15.68;43.36;102286.06;5377425;26;20013;-69
2024/04/13 09:16:30;;;;;;;9.75;1.83;;;;;;;15.25;43.48;102282.44;5362210;26;20006;-68
2024/04/13 09:18:56;;;;;;;9.73;2.33;;;;;;;14.74;44.37;102282.47;5384827;26;20469;-69
2024/04/13 09:21:22;;;;;;;8.55;1.23;;;;;;;15.22;44.04;102285.19;5354309;26;20471;-69
2024/04/13 09:23:50;;;;;;;11.75;1.88;;;;;;;14.97;44.64;102279.03;5406962;26;20014;-68
2024/04/13 09:26:15;;;;;;;5.63;1.00;;;;;;;15.53;43.59;102280.47;5373717;26;20283;-69
2024/04/13 09:28:43;;;;;;;4.03;1.23;;;;;;;15.21;43.81;102283.44;5391497;26;20018;-71
2024/04/13 09:31:11;;;;;;;9.23;1.63;;;;;;;14.66;44.76;102281.03;5382657;26;20012;-69
2024/04/13 09:33:40;;;;;;;11.60;1.95;;;;;;;14.90;44.94;102267.00;5393877;26;20004;-69
2024/04/13 09:36:09;;;;;;;6.97;1.45;;;;;;;15.76;43.62;102260.25;5372181;26;20341;-69
2024/04/13 09:38:35;;;;;;;6.63;2.53;;;;;;;17.37;41.85;102263.88;5392570;26;20006;-68
2024/04/13 09:41:02;;;;;;;8.52;1.77;;;;;;;16.86;40.20;102257.41;5380072;26;20788;-69
2024/04/13 09:43:30;;;;;;;9.02;1.90;;;;;;;16.95;40.88;102262.28;5387176;26;20059;-68
2024/04/13 09:46:04;;;;;;;8.38;1.83;;;;;;;17.18;40.52;102258.59;5336009;26;20075;-69
2024/04/13 09:48:33;;;;;;;7.53;1.60;;;;;;;17.39;41.12;102261.16;5392391;26;20546;-69
2024/04/13 09:51:00;;;;;;;8.30;2.28;;;;;;;15.27;43.25;102254.25;5381293;26;20003;-69
2024/04/13 09:53:25;;;;;;;9.05;2.00;;;;;;;15.07;45.34;102271.63;5414830;26;20010;-68
2024/04/13 09:55:51;;;;;;;4.53;1.77;;;;;;;14.89;44.81;102269.69;5386305;26;19998;-68
2024/04/13 09:58:18;;;;;;;7.97;2.05;;;;;;;15.49;44.41;102262.22;5377768;26;20151;-70
2024/04/13 10:00:48;;;;;;;7.88;1.50;;;;;;;15.25;44.67;102256.09;5389858;26;20045;-69
2024/04/13 10:03:14;;;;;;;7.03;1.67;;;;;;;16.17;43.62;102265.63;5375742;26;19999;-68
2024/04/13 10:05:42;;;;;;;8.40;1.88;;;;;;;16.25;43.22;102260.06;5363937;26;20276;-69
2024/04/13 10:08:09;;;;;;;3.53;1.23;;;;;;;16.85;42.32;102246.94;5374209;26;20038;-69
2024/04/13 10:10:37;;;;;;;8.70;1.63;;;;;;;16.27;42.05;102256.44;5394075;26;20010;-70
2024/04/13 10:13:03;;;;;;;5.35;1.90;;;;;;;16.47;42.01;102250.31;5337642;26;20018;-69
2024/04/13 10:15:31;;;;;;;6.93;1.67;;;;;;;16.17;42.22;102247.16;5391414;26;20874;-70
2024/04/13 10:17:58;;;;;;;6.03;1.33;;;;;;;16.06;43.87;102244.13;5377506;26;20014;-70
2024/04/13 10:20:26;;;;;;;8.55;1.70;;;;;;;16.75;43.98;102236.75;5379996;26;22446;-69
2024/04/13 10:22:58;;;;;;;8.07;1.52;;;;;;;17.55;40.97;102245.47;5381679;26;21130;-69
2024/04/13 10:25:29;;;;;;;4.93;1.35;;;;;;;17.88;39.66;102234.19;5354554;26;22520;-69
2024/04/13 10:28:10;;;;;;;8.27;1.27;;;;;;;16.75;41.09;102236.75;5390119;26;19998;-69
2024/04/13 10:30:52;;;;;;;5.95;1.33;;;;;;;16.69;41.38;102233.50;5392817;26;19995;-69
2024/04/13 10:33:20;;;;;;;8.18;1.27;;;;;;;17.19;40.54;102214.53;5378901;26;20100;-69
2024/04/13 10:36:09;;;;;;;6.88;1.52;;;;;;;16.67;40.75;102225.66;5392774;26;20044;-70
2024/04/13 10:38:39;;;;;;;8.55;1.20;;;;;;;15.99;41.79;102236.47;5388793;25;19995;-69
2024/04/13 10:41:05;;;;;;;7.32;1.30;;;;;;;16.96;40.91;102226.19;5373825;26;20054;-69
2024/04/13 10:43:34;;;;;;;8.40;1.42;;;;;;;16.69;40.32;102234.38;5394094;26;20002;-70
2024/04/13 10:46:02;;;;;;;5.40;0.90;;;;;;;16.39;40.24;102229.50;5382360;26;20009;-69
2024/04/13 10:48:30;;;;;;;10.70;1.65;;;;;;;15.80;41.72;102227.59;5384452;25;20030;-68
2024/04/13 10:50:57;;;;;;;5.28;1.48;;;;;;;16.20;41.41;102215.41;5377878;26;20003;-69
2024/04/13 10:53:26;;;;;;;6.30;1.02;;;;;;;16.25;40.96;102213.41;5381000;25;20003;-69
2024/04/13 10:55:58;;;;;;;6.50;1.13;;;;;;;15.94;42.53;102214.69;5385081;26;19998;-69
2024/04/13 10:58:28;;;;;;;3.58;1.23;;;;;;;16.47;41.30;102196.66;5381301;26;23918;-69
2024/04/13 11:00:55;;;;;;;7.00;1.70;;;;;;;16.12;42.23;102188.50;5383647;26;20010;-69
2024/04/13 11:03:21;;;;;;;6.00;2.30;;;;;;;17.43;40.32;102191.38;5385029;26;20006;-69
2024/04/13 11:05:47;;;;;;;5.35;0.95;;;;;;;17.55;39.68;102192.59;5390233;26;19998;-68
2024/04/13 11:08:12;;;;;;;6.13;1.90;;;;;;;17.38;40.21;102185.44;5368339;26;20015;-69
2024/04/13 11:10:42;;;;;;;6.88;0.90;;;;;;;17.23;40.30;102193.19;5374131;26;20007;-68
2024/04/13 11:13:08;;;;;;;7.18;1.75;;;;;;;16.24;42.58;102203.78;5375031;25;20009;-69
2024/04/13 11:15:34;;;;;;;6.55;1.52;;;;;;;15.82;42.91;102199.38;5400014;26;20011;-69
2024/04/13 11:17:59;;;;;;;11.93;2.63;;;;;;;16.36;41.61;102179.50;5382450;26;20002;-69
2024/04/13 11:20:27;;;;;;;8.80;1.65;;;;;;;17.03;41.22;102187.97;5379935;26;21733;-69
2024/04/13 11:22:56;;;;;;;8.13;2.33;;;;;;;16.29;42.38;102186.00;5354381;26;20050;-68
2024/04/13 11:25:26;;;;;;;10.45;1.88;;;;;;;16.95;41.23;102184.84;5329418;26;20571;-70
2024/04/13 11:27:52;;;;;;;4.60;1.88;;;;;;;17.61;41.14;102187.00;5363516;26;20027;-69
2024/04/13 11:30:21;;;;;;;11.63;2.35;;;;;;;17.69;40.40;102189.25;5382822;26;20049;-69